createdAt,value
2018-07-28T00:00:45.554Z,27.83
2018-07-28T00:03:15.051Z,27.91
2018-07-28T00:05:44.375Z,27.98
2018-07-28T00:08:14.125Z,27.85
2018-07-28T00:10:43.707Z,27.89
2018-07-28T00:13:12.983Z,27.92
2018-07-28T00:15:42.460Z,27.90
2018-07-28T00:18:11.893Z,27.88
2018-07-28T00:20:41.380Z,27.89
2018-07-28T00:23:10.695Z,27.86
2018-07-28T00:26:46.547Z,27.74
2018-07-28T00:29:16.276Z,27.45
2018-07-28T00:31:45.614Z,27.56
2018-07-28T00:34:15.092Z,27.61
2018-07-28T00:36:44.578Z,27.61
2018-07-28T00:39:15.074Z,27.60
2018-07-28T00:41:44.336Z,27.68
2018-07-28T00:44:13.622Z,27.63
2018-07-28T00:46:42.885Z,27.58
2018-07-28T00:49:12.160Z,27.42
2018-07-28T00:51:41.879Z,27.50
2018-07-28T00:54:11.173Z,27.45
2018-07-28T00:56:40.508Z,27.39
2018-07-28T00:59:09.806Z,27.45
2018-07-28T01:01:39.083Z,27.43
2018-07-28T01:04:08.347Z,27.31
2018-07-28T01:06:37.670Z,27.29
2018-07-28T01:09:09.832Z,27.06
2018-07-28T01:11:39.544Z,26.99
2018-07-28T01:14:08.878Z,27.09
2018-07-28T01:16:38.144Z,26.94
2018-07-28T01:19:07.477Z,27.01
2018-07-28T01:21:36.766Z,26.99
2018-07-28T01:24:06.064Z,26.98
2018-07-28T01:26:35.348Z,26.80
2018-07-28T01:29:09.830Z,26.87
2018-07-28T01:31:39.242Z,26.78
2018-07-28T01:34:08.506Z,26.77
2018-07-28T01:36:37.810Z,26.79
2018-07-28T01:39:12.229Z,26.95
2018-07-28T01:41:42.213Z,26.94
2018-07-28T01:44:11.706Z,26.90
2018-07-28T01:46:41.761Z,26.85
2018-07-28T01:49:11.062Z,26.80
2018-07-28T01:51:40.118Z,26.68
2018-07-28T01:54:09.423Z,26.63
2018-07-28T01:56:38.688Z,26.55
2018-07-28T01:59:08.053Z,26.60
2018-07-28T02:01:37.398Z,26.71
2018-07-28T02:04:06.725Z,26.62
2018-07-28T02:06:36.009Z,26.42
2018-07-28T02:09:09.489Z,26.50
2018-07-28T02:11:38.781Z,26.58
2018-07-28T02:14:08.769Z,26.43
2018-07-28T02:16:38.077Z,26.45
2018-07-28T02:19:07.143Z,26.50
2018-07-28T02:21:36.450Z,26.36
2018-07-28T02:24:05.809Z,26.00
2018-07-28T02:26:36.311Z,26.23
2018-07-28T02:29:05.599Z,26.40
2018-07-28T02:31:35.349Z,26.25
2018-07-28T02:34:04.735Z,26.31
2018-07-28T02:36:34.050Z,26.17
2018-07-28T02:39:03.376Z,26.26
2018-07-28T02:41:32.631Z,26.20
2018-07-28T02:44:02.035Z,26.13
2018-07-28T02:46:31.373Z,26.20
2018-07-28T02:49:00.647Z,26.06
2018-07-28T02:51:29.938Z,26.11
2018-07-28T02:53:59.747Z,26.08
2018-07-28T02:56:29.034Z,25.93
2018-07-28T02:58:58.332Z,26.08
2018-07-28T03:01:27.687Z,25.73
2018-07-28T03:03:57.021Z,25.84
2018-07-28T03:06:26.327Z,25.80
2018-07-28T03:08:55.689Z,25.82
2018-07-28T03:11:25.008Z,25.80
2018-07-28T03:13:54.324Z,25.72
2018-07-28T03:16:23.931Z,25.53
2018-07-28T03:18:53.198Z,25.42
2018-07-28T03:21:22.532Z,25.49
2018-07-28T03:23:51.930Z,25.46
2018-07-28T03:26:21.256Z,25.58
2018-07-28T03:28:50.558Z,25.70
2018-07-28T03:31:19.855Z,25.86
2018-07-28T03:33:49.170Z,25.87
2018-07-28T03:36:18.706Z,25.92
2018-07-28T03:38:48.522Z,25.98
2018-07-28T03:41:17.806Z,25.90
2018-07-28T03:43:47.091Z,25.95
2018-07-28T03:46:16.370Z,25.87
2018-07-28T03:48:45.650Z,25.79
2018-07-28T03:51:14.972Z,25.84
2018-07-28T03:53:44.237Z,25.78
2018-07-28T03:56:13.524Z,25.75
2018-07-28T03:58:42.815Z,25.72
2018-07-28T04:01:12.513Z,25.69
2018-07-28T04:03:41.812Z,25.84
2018-07-28T04:06:11.127Z,25.72
2018-07-28T04:08:40.459Z,25.83
2018-07-28T04:11:09.727Z,25.85
2018-07-28T04:13:39.121Z,25.93
2018-07-28T04:16:08.160Z,25.96
2018-07-28T04:18:37.458Z,26.07
2018-07-28T04:21:06.807Z,26.13
2018-07-28T04:23:36.438Z,26.04
2018-07-28T04:26:05.815Z,26.03
2018-07-28T04:28:35.176Z,26.23
2018-07-28T04:31:04.533Z,26.19
2018-07-28T04:33:33.807Z,26.23
2018-07-28T04:36:03.085Z,26.25
2018-07-28T04:38:32.383Z,26.42
2018-07-28T04:41:01.673Z,26.52
2018-07-28T04:43:30.983Z,26.51
2018-07-28T04:46:00.537Z,26.50
2018-07-28T04:48:29.827Z,26.50
2018-07-28T04:50:59.087Z,26.37
2018-07-28T04:53:28.367Z,26.24
2018-07-28T04:55:57.787Z,26.23
2018-07-28T04:58:27.078Z,26.22
2018-07-28T05:00:56.366Z,26.30
2018-07-28T05:03:25.619Z,26.61
2018-07-28T05:05:54.951Z,26.62
2018-07-28T05:08:24.595Z,26.53
2018-07-28T05:10:53.847Z,26.51
2018-07-28T05:13:23.144Z,26.37
2018-07-28T05:15:52.527Z,26.44
2018-07-28T05:18:21.830Z,26.68
2018-07-28T05:20:51.116Z,26.70
2018-07-28T05:23:20.417Z,27.12
2018-07-28T05:25:49.731Z,27.09
2018-07-28T05:28:19.033Z,27.15
2018-07-28T05:30:48.431Z,27.05
2018-07-28T05:33:17.699Z,26.71
2018-07-28T05:35:46.983Z,26.39
2018-07-28T05:38:16.307Z,26.14
2018-07-28T05:40:45.630Z,26.53
2018-07-28T05:43:14.866Z,26.59
2018-07-28T05:45:44.203Z,26.47
2018-07-28T05:48:13.879Z,26.58
2018-07-28T05:50:43.293Z,26.60
2018-07-28T05:53:13.023Z,26.74
2018-07-28T05:55:42.327Z,26.81
2018-07-28T05:58:11.602Z,26.64
2018-07-28T06:00:40.675Z,27.13
2018-07-28T06:03:09.965Z,27.12
2018-07-28T06:05:39.276Z,27.05
2018-07-28T06:08:08.562Z,27.14
2018-07-28T06:10:37.942Z,27.19
2018-07-28T06:13:07.267Z,27.09
2018-07-28T06:15:37.013Z,27.38
2018-07-28T06:18:06.382Z,27.17
2018-07-28T06:20:35.692Z,27.40
2018-07-28T06:23:05.236Z,27.31
2018-07-28T06:25:34.505Z,27.46
2018-07-28T06:28:03.892Z,27.49
2018-07-28T06:30:33.268Z,27.64
2018-07-28T06:33:02.566Z,27.65
2018-07-28T06:35:31.903Z,27.63
2018-07-28T06:38:01.341Z,27.75
2018-07-28T06:40:30.595Z,27.81
2018-07-28T06:42:59.893Z,27.73
2018-07-28T06:45:29.301Z,27.92
2018-07-28T06:47:58.575Z,27.65
2018-07-28T06:50:27.911Z,28.25
2018-07-28T06:52:57.280Z,28.39
2018-07-28T06:55:26.698Z,28.27
2018-07-28T06:57:56.041Z,28.12
2018-07-28T07:00:25.661Z,28.22
2018-07-28T07:02:55.109Z,28.35
2018-07-28T07:05:24.394Z,28.60
2018-07-28T07:07:53.707Z,28.79
2018-07-28T07:10:23.054Z,28.89
2018-07-28T07:12:52.358Z,29.01
2018-07-28T07:15:21.733Z,28.85
2018-07-28T07:17:51.026Z,28.53
2018-07-28T07:20:20.354Z,28.72
2018-07-28T07:22:49.775Z,28.52
2018-07-28T07:25:19.093Z,28.47
2018-07-28T07:27:48.439Z,28.80
2018-07-28T07:30:17.831Z,28.90
2018-07-28T07:32:47.123Z,29.01
2018-07-28T07:35:16.818Z,29.29
2018-07-28T07:37:47.065Z,29.50
2018-07-28T07:40:16.487Z,29.46
2018-07-28T07:42:45.804Z,29.55
2018-07-28T07:45:15.347Z,29.55
2018-07-28T07:47:44.664Z,29.51
2018-07-28T07:50:13.998Z,29.34
2018-07-28T07:52:43.393Z,29.83
2018-07-28T07:55:12.691Z,29.94
2018-07-28T07:57:41.972Z,29.76
2018-07-28T08:00:11.477Z,30.13
2018-07-28T08:02:40.812Z,29.69
2018-07-28T08:05:10.174Z,29.29
2018-07-28T08:07:39.895Z,29.81
2018-07-28T08:10:09.211Z,30.05
2018-07-28T08:12:38.558Z,29.96
2018-07-28T08:15:07.876Z,30.34
2018-07-28T08:17:37.151Z,29.97
2018-07-28T08:20:06.470Z,30.29
2018-07-28T08:22:35.814Z,30.42
2018-07-28T08:25:05.909Z,30.31
2018-07-28T08:27:35.572Z,30.30
2018-07-28T08:30:06.444Z,30.27
2018-07-28T08:32:35.813Z,30.44
2018-07-28T08:35:06.775Z,30.47
2018-07-28T08:37:36.078Z,30.87
2018-07-28T08:40:06.673Z,31.24
2018-07-28T08:42:36.059Z,30.94
2018-07-28T08:45:06.193Z,30.89
2018-07-28T08:47:35.590Z,31.05
2018-07-28T08:50:05.343Z,30.97
2018-07-28T08:52:34.611Z,31.12
2018-07-28T08:55:03.928Z,30.83
2018-07-28T08:57:33.274Z,30.87
2018-07-28T09:00:02.619Z,31.09
2018-07-28T09:02:31.914Z,31.09
2018-07-28T09:05:01.250Z,31.39
2018-07-28T09:07:30.550Z,31.11
2018-07-28T09:10:00.830Z,31.01
2018-07-28T09:12:30.628Z,31.03
2018-07-28T09:14:59.887Z,31.05
2018-07-28T09:17:29.145Z,31.29
2018-07-28T09:19:58.512Z,31.66
2018-07-28T09:22:27.908Z,32.09
2018-07-28T09:24:57.282Z,32.26
2018-07-28T09:27:26.792Z,32.32
2018-07-28T09:29:56.100Z,31.99
2018-07-28T09:32:25.391Z,32.13
2018-07-28T09:34:55.036Z,31.83
2018-07-28T09:37:24.614Z,32.24
2018-07-28T09:39:53.944Z,32.72
2018-07-28T09:42:23.282Z,32.71
2018-07-28T09:44:52.620Z,32.72
2018-07-28T09:47:21.920Z,32.42
2018-07-28T09:49:51.271Z,32.44
2018-07-28T09:52:20.592Z,32.76
2018-07-28T09:54:50.115Z,33.17
2018-07-28T09:57:19.978Z,33.29
2018-07-28T09:59:49.429Z,33.69
2018-07-28T10:02:18.887Z,33.49
2018-07-28T10:04:48.366Z,33.40
2018-07-28T10:07:17.711Z,33.00
2018-07-28T10:09:47.203Z,33.35
2018-07-28T10:12:16.518Z,33.61
2018-07-28T10:14:45.835Z,33.78
2018-07-28T10:17:15.223Z,33.70
2018-07-28T10:19:44.766Z,33.22
2018-07-28T10:22:14.295Z,33.81
2018-07-28T10:24:43.684Z,34.28
2018-07-28T10:27:13.022Z,34.02
2018-07-28T10:29:42.307Z,33.96
2018-07-28T10:32:11.619Z,34.07
2018-07-28T10:34:40.937Z,34.37
2018-07-28T10:37:10.009Z,35.02
2018-07-28T10:39:39.408Z,34.72
2018-07-28T10:42:08.834Z,35.02
2018-07-28T10:44:37.916Z,34.91
2018-07-28T10:47:07.287Z,34.61
2018-07-28T10:49:36.621Z,34.76
2018-07-28T10:52:05.982Z,34.45
2018-07-28T10:54:35.325Z,34.50
2018-07-28T10:57:04.664Z,34.90
2018-07-28T10:59:33.998Z,34.70
2018-07-28T11:02:03.343Z,34.69
2018-07-28T11:04:33.138Z,35.30
2018-07-28T11:07:02.444Z,35.73
2018-07-28T11:09:31.795Z,35.39
2018-07-28T11:12:01.171Z,35.03
2018-07-28T11:14:30.518Z,34.89
2018-07-28T11:16:59.780Z,35.27
2018-07-28T11:19:29.110Z,35.30
2018-07-28T11:21:58.442Z,35.65
2018-07-28T11:24:27.774Z,35.48
2018-07-28T11:26:57.670Z,35.38
2018-07-28T11:29:27.041Z,36.24
2018-07-28T11:32:13.382Z,36.02
2018-07-28T11:34:59.646Z,36.43
2018-07-28T11:37:45.935Z,36.22
2018-07-28T11:42:38.706Z,35.56
2018-07-28T11:45:16.414Z,35.00
2018-07-28T11:47:45.703Z,35.09
2018-07-28T11:50:14.986Z,35.67
2018-07-28T11:52:44.312Z,35.37
2018-07-28T11:55:13.620Z,35.77
2018-07-28T11:57:42.916Z,36.24
2018-07-28T12:00:12.267Z,36.13
2018-07-28T12:02:41.527Z,35.54
2018-07-28T12:05:10.803Z,35.49
2018-07-28T12:07:40.295Z,35.93
2018-07-28T12:10:10.110Z,36.20
2018-07-28T12:12:39.477Z,36.21
2018-07-28T12:15:09.064Z,36.14
2018-07-28T12:17:38.455Z,36.49
2018-07-28T12:20:07.849Z,36.21
2018-07-28T12:22:37.158Z,35.99
2018-07-28T12:25:06.453Z,35.39
2018-07-28T12:27:35.812Z,35.67
2018-07-28T12:30:06.588Z,35.97
2018-07-28T12:32:35.906Z,36.19
2018-07-28T12:35:05.940Z,36.19
2018-07-28T12:37:35.292Z,35.79
2018-07-28T12:40:04.640Z,35.96
2018-07-28T12:42:34.017Z,35.90
2018-07-28T12:45:03.449Z,35.68
2018-07-28T12:47:32.790Z,35.75
2018-07-28T12:50:02.162Z,36.02
2018-07-28T12:52:31.430Z,36.13
2018-07-28T12:55:01.409Z,36.00
2018-07-28T12:57:31.321Z,36.16
2018-07-28T13:00:00.686Z,35.90
2018-07-28T13:02:30.030Z,35.48
2018-07-28T13:04:59.326Z,35.28
2018-07-28T13:07:28.779Z,35.01
2018-07-28T13:09:58.046Z,34.93
2018-07-28T13:12:27.391Z,34.91
2018-07-28T13:14:57.018Z,34.78
2018-07-28T13:17:26.338Z,34.81
2018-07-28T13:19:55.739Z,34.68
2018-07-28T13:22:25.067Z,34.70
2018-07-28T13:24:54.502Z,35.00
2018-07-28T13:27:23.762Z,35.01
2018-07-28T13:29:53.172Z,34.54
2018-07-28T13:32:22.406Z,32.63
2018-07-28T13:34:51.795Z,31.67
2018-07-28T13:37:21.206Z,30.85
2018-07-28T13:39:50.509Z,30.29
2018-07-28T13:42:19.843Z,29.34
2018-07-28T13:44:49.210Z,29.16
2018-07-28T13:47:18.529Z,28.58
2018-07-28T13:49:47.886Z,27.89
2018-07-28T13:52:17.295Z,27.29
2018-07-28T13:54:46.656Z,27.25
2018-07-28T13:57:15.986Z,27.29
2018-07-28T13:59:45.868Z,27.37
2018-07-28T14:02:16.388Z,26.77
2018-07-28T14:04:45.760Z,26.50
2018-07-28T14:07:15.090Z,26.77
2018-07-28T14:09:44.519Z,26.77
2018-07-28T14:12:14.044Z,26.74
2018-07-28T14:14:43.698Z,26.26
2018-07-28T14:17:13.065Z,25.80
2018-07-28T14:19:42.360Z,25.89
2018-07-28T14:22:12.346Z,25.86
2018-07-28T14:24:41.697Z,26.25
2018-07-28T14:27:11.040Z,26.08
2018-07-28T14:29:40.370Z,25.75
2018-07-28T14:32:09.669Z,25.64
2018-07-28T14:34:39.168Z,25.34
2018-07-28T14:37:08.495Z,24.65
2018-07-28T14:39:37.872Z,24.90
2018-07-28T14:42:07.171Z,24.68
2018-07-28T14:44:36.977Z,24.71
2018-07-28T14:47:07.225Z,25.12
2018-07-28T14:49:36.491Z,24.87
2018-07-28T14:52:05.809Z,24.95
2018-07-28T14:54:34.941Z,25.14
2018-07-28T14:57:04.320Z,25.44
2018-07-28T14:59:33.664Z,25.46
2018-07-28T15:02:02.987Z,25.64
2018-07-28T15:04:32.495Z,25.82
2018-07-28T15:07:02.393Z,25.72
2018-07-28T15:09:31.732Z,25.75
2018-07-28T15:12:01.106Z,25.73
2018-07-28T15:14:30.598Z,25.87
2018-07-28T15:16:59.904Z,25.87
2018-07-28T15:19:29.208Z,26.01
2018-07-28T15:21:58.587Z,26.17
2018-07-28T15:24:28.054Z,26.23
2018-07-28T15:26:57.402Z,26.20
2018-07-28T15:29:27.243Z,26.18
2018-07-28T15:31:56.687Z,26.27
2018-07-28T15:34:26.035Z,26.28
2018-07-28T15:36:55.409Z,26.43
2018-07-28T15:39:24.706Z,26.49
2018-07-28T15:41:54.038Z,26.37
2018-07-28T15:44:23.321Z,26.06
2018-07-28T15:46:52.630Z,25.98
2018-07-28T15:49:21.973Z,25.67
2018-07-28T15:51:51.973Z,25.81
2018-07-28T15:54:21.314Z,26.04
2018-07-28T15:56:50.694Z,26.36
2018-07-28T15:59:19.856Z,26.62
2018-07-28T16:01:49.237Z,26.66
2018-07-28T16:04:18.470Z,26.87
2018-07-28T16:06:47.806Z,26.93
2018-07-28T16:09:17.102Z,27.13
2018-07-28T16:11:46.449Z,27.13
2018-07-28T16:14:16.951Z,27.41
2018-07-28T16:16:46.272Z,27.20
2018-07-28T16:19:15.654Z,27.22
2018-07-28T16:21:45.035Z,27.14
2018-07-28T16:24:14.392Z,27.18
2018-07-28T16:26:43.711Z,27.26
2018-07-28T16:29:13.059Z,27.19
2018-07-28T16:31:42.331Z,27.27
2018-07-28T16:34:11.625Z,27.39
2018-07-28T16:36:41.163Z,27.24
2018-07-28T16:39:11.458Z,27.23
2018-07-28T16:41:40.758Z,27.34
2018-07-28T16:44:10.091Z,27.23
2018-07-28T16:46:39.517Z,27.33
2018-07-28T16:49:09.042Z,27.09
2018-07-28T16:51:38.428Z,27.17
2018-07-28T16:54:08.071Z,27.35
2018-07-28T16:56:37.446Z,27.38
2018-07-28T16:59:06.936Z,27.43
2018-07-28T17:01:36.647Z,27.30
2018-07-28T17:04:06.034Z,27.25
2018-07-28T17:06:35.603Z,27.26
2018-07-28T17:09:07.836Z,27.43
2018-07-28T17:11:37.210Z,27.49
2018-07-28T17:14:06.639Z,27.47
2018-07-28T17:16:36.031Z,27.28
2018-07-28T17:19:06.621Z,27.25
2018-07-28T17:21:35.987Z,27.39
2018-07-28T17:24:05.412Z,27.41
2018-07-28T17:26:34.937Z,27.47
2018-07-28T17:29:05.756Z,27.55
2018-07-28T17:31:35.128Z,27.52
2018-07-28T17:34:04.523Z,27.68
2018-07-28T17:36:33.842Z,27.58
2018-07-28T17:39:03.371Z,27.76
2018-07-28T17:41:32.773Z,27.73
2018-07-28T17:44:02.248Z,27.51
2018-07-28T17:46:31.534Z,27.45
2018-07-28T17:49:00.900Z,27.38
2018-07-28T17:51:30.698Z,27.42
2018-07-28T17:54:00.043Z,27.08
2018-07-28T17:56:29.331Z,27.14
2018-07-28T17:58:58.638Z,27.27
2018-07-28T18:01:27.921Z,27.20
2018-07-28T18:03:57.421Z,27.02
2018-07-28T18:06:26.727Z,26.87
2018-07-28T18:08:56.053Z,26.83
2018-07-28T18:11:25.483Z,26.83
2018-07-28T18:13:54.874Z,26.99
2018-07-28T18:16:24.209Z,26.89
2018-07-28T18:18:53.686Z,27.03
2018-07-28T18:21:23.471Z,27.12
2018-07-28T18:23:52.673Z,26.97
2018-07-28T18:26:22.251Z,26.99
2018-07-28T18:28:51.643Z,26.78
2018-07-28T18:31:20.988Z,26.75
2018-07-28T18:33:50.314Z,26.86
2018-07-28T18:36:19.726Z,26.82
2018-07-28T18:38:49.018Z,26.75
2018-07-28T18:41:18.357Z,26.70
2018-07-28T18:43:47.708Z,26.52
2018-07-28T18:46:17.070Z,26.22
2018-07-28T18:48:46.631Z,26.15
2018-07-28T18:51:15.948Z,25.93
2018-07-28T18:53:45.284Z,26.08
2018-07-28T18:56:14.618Z,26.14
2018-07-28T18:58:44.098Z,25.92
2018-07-28T19:01:13.601Z,25.68
2018-07-28T19:03:43.069Z,25.73
2018-07-28T19:06:12.413Z,25.73
2018-07-28T19:08:41.732Z,25.70
2018-07-28T19:11:11.175Z,25.77
2018-07-28T19:13:45.728Z,25.74
2018-07-28T19:16:15.052Z,25.71
2018-07-28T19:18:49.479Z,25.54
2018-07-28T19:21:18.891Z,25.54
2018-07-28T19:23:53.549Z,25.78
2018-07-28T19:26:23.159Z,25.71
2018-07-28T19:28:57.669Z,25.69
2018-07-28T19:31:27.043Z,25.74
2018-07-28T19:33:56.382Z,25.59
2018-07-28T19:36:31.149Z,25.22
2018-07-28T19:39:00.478Z,25.37
2018-07-28T19:41:32.766Z,25.35
2018-07-28T19:44:02.571Z,25.43
2018-07-28T19:46:32.020Z,25.44
2018-07-28T19:49:01.452Z,25.59
2018-07-28T19:51:30.870Z,25.71
2018-07-28T19:54:00.211Z,25.79
2018-07-28T19:56:29.594Z,25.67
2018-07-28T19:58:58.915Z,25.62
2018-07-28T20:01:28.269Z,25.58
2018-07-28T20:03:57.716Z,25.34
2018-07-28T20:06:27.004Z,25.33
2018-07-28T20:08:56.354Z,25.32
2018-07-28T20:11:25.727Z,25.33
2018-07-28T20:13:55.501Z,24.83
2018-07-28T20:16:24.833Z,24.45
2018-07-28T20:18:54.457Z,24.63
2018-07-28T20:21:23.806Z,24.77
2018-07-28T20:23:53.116Z,24.71
2018-07-28T20:26:22.757Z,24.63
2018-07-28T20:28:52.375Z,24.81
2018-07-28T20:31:21.733Z,24.85
2018-07-28T20:33:51.528Z,24.90
2018-07-28T20:36:20.885Z,24.85
2018-07-28T20:38:50.238Z,25.03
2018-07-28T20:41:19.704Z,25.11
2018-07-28T20:43:49.010Z,24.84
2018-07-28T20:46:18.362Z,24.86
2018-07-28T20:48:48.339Z,24.90
2018-07-28T20:51:17.661Z,24.64
2018-07-28T20:53:46.966Z,24.69
2018-07-28T20:56:16.287Z,24.54
2018-07-28T20:58:45.568Z,24.21
2018-07-28T21:01:14.876Z,24.32
2018-07-28T21:03:44.236Z,24.09
2018-07-28T21:06:14.572Z,24.33
2018-07-28T21:08:43.906Z,24.39
2018-07-28T21:11:13.534Z,24.56
2018-07-28T21:13:42.900Z,24.63
2018-07-28T21:16:12.235Z,24.56
2018-07-28T21:18:41.632Z,24.55
2018-07-28T21:21:10.947Z,24.28
2018-07-28T21:23:40.334Z,23.92
2018-07-28T21:26:09.666Z,23.88
2018-07-28T21:28:39.120Z,23.84
2018-07-28T21:31:08.468Z,23.83
2018-07-28T21:33:38.273Z,23.63
2018-07-28T21:36:07.551Z,23.41
2018-07-28T21:38:36.847Z,23.16
2018-07-28T21:41:06.474Z,23.21
2018-07-28T21:43:35.772Z,23.06
2018-07-28T21:46:05.170Z,23.07
2018-07-28T21:48:34.582Z,22.56
2018-07-28T21:51:03.894Z,22.61
2018-07-28T21:53:33.210Z,22.45
2018-07-28T21:56:02.964Z,22.67
2018-07-28T21:58:32.251Z,22.92
2018-07-28T22:01:08.064Z,23.23
2018-07-28T22:03:37.840Z,22.98
2018-07-28T22:06:07.111Z,23.20
2018-07-28T22:08:36.438Z,23.19
2018-07-28T22:11:05.806Z,23.19
2018-07-28T22:13:35.109Z,22.74
2018-07-28T22:16:04.765Z,22.74
2018-07-28T22:18:34.037Z,22.54
2018-07-28T22:21:03.359Z,22.52
2018-07-28T22:23:32.708Z,22.64
2018-07-28T22:26:02.091Z,22.54
2018-07-28T22:28:31.407Z,22.53
2018-07-28T22:31:00.778Z,22.62
2018-07-28T22:33:30.047Z,22.57
2018-07-28T22:35:59.311Z,22.73
2018-07-28T22:38:29.076Z,22.96
2018-07-28T22:40:58.512Z,22.83
2018-07-28T22:43:27.858Z,22.95
2018-07-28T22:45:57.731Z,22.65
2018-07-28T22:48:27.078Z,22.83
2018-07-28T22:50:56.371Z,22.79
2018-07-28T22:53:25.717Z,22.36
2018-07-28T22:55:55.013Z,22.58
2018-07-28T22:58:24.296Z,22.76
2018-07-28T23:00:53.807Z,23.04
2018-07-28T23:03:23.155Z,23.04
2018-07-28T23:05:52.439Z,23.05
2018-07-28T23:08:21.786Z,22.96
2018-07-28T23:10:51.104Z,23.04
2018-07-28T23:13:20.444Z,23.17
2018-07-28T23:15:49.782Z,23.37
2018-07-28T23:18:19.064Z,23.35
2018-07-28T23:20:48.349Z,23.32
2018-07-28T23:23:18.131Z,23.34
2018-07-28T23:25:47.469Z,23.45
2018-07-28T23:28:16.744Z,22.97
2018-07-28T23:30:46.060Z,22.97
2018-07-28T23:33:15.347Z,22.92
2018-07-28T23:35:44.703Z,22.64
2018-07-28T23:38:14.115Z,22.76
2018-07-28T23:40:43.426Z,22.72
2018-07-28T23:43:12.704Z,22.55
2018-07-28T23:45:42.436Z,22.45
2018-07-28T23:48:11.727Z,22.23
2018-07-28T23:50:41.061Z,22.18
2018-07-28T23:53:10.423Z,22.44
2018-07-28T23:55:39.729Z,22.03
2018-07-28T23:58:09.030Z,22.00
